createdAt,value
2018-09-30T00:01:56.588Z,55.30
2018-09-30T00:04:26.497Z,54.50
2018-09-30T00:06:55.211Z,54.80
2018-09-30T00:09:29.909Z,55.10
2018-09-30T00:12:00.427Z,55.30
2018-09-30T00:14:29.131Z,55.60
2018-09-30T00:16:58.639Z,55.40
2018-09-30T00:19:29.380Z,55.60
2018-09-30T00:21:58.199Z,55.00
2018-09-30T00:24:32.070Z,55.70
2018-09-30T00:27:06.105Z,55.30
2018-09-30T00:29:36.308Z,55.90
2018-09-30T00:32:05.118Z,55.10
2018-09-30T00:34:34.091Z,55.10
2018-09-30T00:37:02.892Z,55.00
2018-09-30T00:39:31.683Z,54.80
2018-09-30T00:42:00.356Z,55.80
2018-09-30T00:44:29.101Z,55.10
2018-09-30T00:46:57.932Z,55.20
2018-09-30T00:49:27.092Z,55.50
2018-09-30T00:51:55.723Z,55.30
2018-09-30T00:54:25.813Z,55.60
2018-09-30T00:56:54.442Z,55.10
2018-09-30T00:59:23.171Z,55.30
2018-09-30T01:01:53.556Z,55.20
2018-09-30T01:04:22.804Z,55.30
2018-09-30T01:06:51.600Z,55.50
2018-09-30T01:09:20.400Z,55.80
2018-09-30T01:11:49.553Z,55.90
2018-09-30T01:14:18.351Z,55.80
2018-09-30T01:16:47.211Z,55.90
2018-09-30T01:19:15.972Z,55.60
2018-09-30T01:21:44.766Z,56.50
2018-09-30T01:24:13.491Z,56.90
2018-09-30T01:26:42.299Z,56.90
2018-09-30T01:29:11.532Z,56.70
2018-09-30T01:31:40.105Z,55.60
2018-09-30T01:34:08.715Z,56.80
2018-09-30T01:36:37.412Z,56.70
2018-09-30T01:39:06.997Z,56.80
2018-09-30T01:41:35.730Z,56.80
2018-09-30T01:44:04.530Z,56.90
2018-09-30T01:46:33.313Z,57.10
2018-09-30T01:49:02.025Z,57.20
2018-09-30T01:51:30.991Z,57.40
2018-09-30T01:54:02.545Z,57.60
2018-09-30T01:56:31.249Z,57.70
2018-09-30T01:59:00.074Z,58.10
2018-09-30T02:01:29.960Z,58.10
2018-09-30T02:03:59.276Z,58.20
2018-09-30T02:06:27.990Z,58.30
2018-09-30T02:08:57.104Z,58.40
2018-09-30T02:11:25.750Z,58.60
2018-09-30T02:13:54.434Z,58.90
2018-09-30T02:16:25.717Z,58.90
2018-09-30T02:18:54.324Z,58.90
2018-09-30T02:21:24.094Z,59.00
2018-09-30T02:23:52.853Z,59.00
2018-09-30T02:26:21.682Z,60.50
2018-09-30T02:28:50.679Z,59.20
2018-09-30T02:31:19.391Z,59.30
2018-09-30T02:33:48.098Z,59.80
2018-09-30T02:36:18.464Z,59.70
2018-09-30T02:38:47.270Z,60.40
2018-09-30T02:41:15.951Z,61.60
2018-09-30T02:43:44.605Z,61.40
2018-09-30T02:46:15.387Z,60.10
2018-09-30T02:48:44.039Z,63.00
2018-09-30T02:51:12.648Z,63.90
2018-09-30T02:53:41.446Z,64.20
2018-09-30T02:56:10.026Z,64.40
2018-09-30T02:58:38.850Z,64.60
2018-09-30T03:01:07.750Z,64.20
2018-09-30T03:03:36.571Z,64.40
2018-09-30T03:06:05.340Z,64.20
2018-09-30T03:08:39.342Z,61.60
2018-09-30T03:11:08.029Z,63.70
2018-09-30T03:13:36.711Z,64.10
2018-09-30T03:16:05.422Z,64.10
2018-09-30T03:18:34.305Z,64.10
2018-09-30T03:21:03.323Z,64.70
2018-09-30T03:23:32.031Z,64.90
2018-09-30T03:26:00.689Z,64.10
2018-09-30T03:28:29.748Z,64.90
2018-09-30T03:30:58.435Z,64.70
2018-09-30T03:33:27.184Z,64.60
2018-09-30T03:35:55.920Z,62.90
2018-09-30T03:38:24.875Z,62.50
2018-09-30T03:40:53.571Z,62.30
2018-09-30T03:43:22.462Z,62.20
2018-09-30T03:45:51.206Z,62.20
2018-09-30T03:48:20.084Z,63.80
2018-09-30T03:50:48.948Z,64.40
2018-09-30T03:53:17.693Z,63.90
2018-09-30T03:55:46.422Z,64.00
2018-09-30T03:58:16.128Z,63.70
2018-09-30T04:00:44.789Z,63.70
2018-09-30T04:03:13.481Z,62.70
2018-09-30T04:05:42.211Z,62.40
2018-09-30T04:08:10.779Z,61.90
2018-09-30T04:10:39.539Z,61.50
2018-09-30T04:13:08.455Z,62.40
2018-09-30T04:15:37.311Z,61.40
2018-09-30T04:18:08.167Z,61.50
2018-09-30T04:20:36.978Z,61.60
2018-09-30T04:23:05.643Z,61.20
2018-09-30T04:25:34.318Z,61.70
2018-09-30T04:28:03.694Z,62.30
2018-09-30T04:30:35.225Z,66.90
2018-09-30T04:33:03.985Z,68.50
2018-09-30T04:35:32.583Z,70.00
2018-09-30T04:38:01.332Z,70.10
2018-09-30T04:40:32.339Z,70.10
2018-09-30T04:43:00.987Z,69.10
2018-09-30T04:45:31.144Z,69.60
2018-09-30T04:47:59.778Z,70.90
2018-09-30T04:50:29.026Z,72.00
2018-09-30T04:52:57.681Z,72.60
2018-09-30T04:55:26.585Z,73.60
2018-09-30T04:57:55.530Z,74.00
2018-09-30T05:00:24.201Z,73.00
2018-09-30T05:02:52.856Z,72.60
2018-09-30T05:05:24.034Z,70.30
2018-09-30T05:07:54.302Z,73.30
2018-09-30T05:10:22.963Z,74.00
2018-09-30T05:12:51.835Z,74.10
2018-09-30T05:15:20.524Z,73.80
2018-09-30T05:17:49.277Z,74.10
2018-09-30T05:20:17.973Z,74.50
2018-09-30T05:22:47.728Z,74.50
2018-09-30T05:25:16.610Z,73.70
2018-09-30T05:27:45.247Z,73.40
2018-09-30T05:30:13.910Z,73.50
2018-09-30T05:32:42.614Z,74.50
2018-09-30T05:35:11.352Z,75.20
2018-09-30T05:37:39.986Z,75.20
2018-09-30T05:40:08.723Z,74.40
2018-09-30T05:42:37.386Z,72.30
2018-09-30T05:45:06.308Z,74.60
2018-09-30T05:47:35.007Z,74.30
2018-09-30T05:50:03.683Z,74.00
2018-09-30T05:52:32.391Z,73.70
2018-09-30T05:55:01.063Z,73.30
2018-09-30T05:57:29.929Z,73.00
2018-09-30T06:00:02.169Z,72.90
2018-09-30T06:02:30.774Z,72.60
2018-09-30T06:04:59.547Z,74.30
2018-09-30T06:07:28.301Z,73.80
2018-09-30T06:09:56.995Z,71.00
2018-09-30T06:12:25.812Z,73.30
2018-09-30T06:14:54.491Z,74.40
2018-09-30T06:17:23.385Z,72.80
2018-09-30T06:19:52.082Z,74.50
2018-09-30T06:22:20.776Z,74.00
2018-09-30T06:24:51.847Z,75.00
2018-09-30T06:27:20.614Z,75.20
2018-09-30T06:29:49.386Z,74.80
2018-09-30T06:32:18.121Z,73.90
2018-09-30T06:34:48.751Z,74.30
2018-09-30T06:37:17.621Z,74.40
2018-09-30T06:39:46.390Z,74.80
2018-09-30T06:42:15.032Z,75.00
2018-09-30T06:44:44.906Z,75.50
2018-09-30T06:47:13.589Z,75.90
2018-09-30T06:49:42.187Z,75.60
2018-09-30T06:52:10.883Z,75.60
2018-09-30T06:54:41.255Z,75.20
2018-09-30T06:57:10.162Z,75.60
2018-09-30T06:59:38.855Z,75.40
2018-09-30T07:02:07.573Z,74.70
2018-09-30T07:04:36.166Z,74.20
2018-09-30T07:07:05.838Z,72.20
2018-09-30T07:09:34.631Z,74.20
2018-09-30T07:12:03.297Z,73.60
2018-09-30T07:14:32.190Z,72.00
2018-09-30T07:17:01.004Z,74.20
2018-09-30T07:19:29.572Z,74.60
2018-09-30T07:21:58.270Z,74.60
2018-09-30T07:24:27.143Z,73.40
2018-09-30T07:26:55.901Z,72.50
2018-09-30T07:29:24.990Z,74.60
2018-09-30T07:32:00.666Z,75.30
2018-09-30T07:34:37.209Z,75.30
2018-09-30T07:37:06.344Z,76.00
2018-09-30T07:39:35.103Z,76.10
2018-09-30T07:42:08.907Z,75.90
2018-09-30T07:44:45.371Z,75.90
2018-09-30T07:47:14.391Z,75.90
2018-09-30T07:49:53.607Z,73.20
2018-09-30T07:52:22.463Z,72.00
2018-09-30T07:54:51.239Z,71.60
2018-09-30T07:57:19.971Z,69.20
2018-09-30T07:59:48.815Z,68.50
2018-09-30T08:02:17.704Z,68.10
2018-09-30T08:04:46.447Z,67.30
2018-09-30T08:07:20.068Z,66.80
2018-09-30T08:09:53.441Z,67.60
2018-09-30T08:12:22.796Z,67.70
2018-09-30T08:14:51.551Z,69.00
2018-09-30T08:17:20.747Z,69.00
2018-09-30T08:19:49.614Z,68.20
2018-09-30T08:22:18.434Z,67.70
2018-09-30T08:24:47.126Z,67.80
2018-09-30T08:27:15.719Z,68.30
2018-09-30T08:29:44.482Z,67.80
2018-09-30T08:32:13.180Z,66.30
2018-09-30T08:34:43.437Z,65.40
2018-09-30T08:37:12.469Z,65.20
2018-09-30T08:39:41.959Z,64.70
2018-09-30T08:42:12.209Z,65.40
2018-09-30T08:44:42.187Z,65.10
2018-09-30T08:47:11.002Z,63.80
2018-09-30T08:49:40.769Z,63.50
2018-09-30T08:52:09.758Z,62.40
2018-09-30T08:54:38.450Z,61.60
2018-09-30T08:57:10.913Z,60.10
2018-09-30T08:59:39.620Z,60.70
2018-09-30T09:02:08.499Z,59.60
2018-09-30T09:04:40.230Z,59.90
2018-09-30T09:07:09.017Z,60.60
2018-09-30T09:09:37.682Z,61.00
2018-09-30T09:12:07.556Z,61.10
2018-09-30T09:14:36.528Z,60.40
2018-09-30T09:17:05.268Z,60.10
2018-09-30T09:19:34.281Z,59.60
2018-09-30T09:22:03.005Z,59.30
2018-09-30T09:24:31.786Z,58.90
2018-09-30T09:27:00.511Z,58.30
2018-09-30T09:29:29.319Z,57.80
2018-09-30T09:31:58.884Z,57.40
2018-09-30T09:34:36.062Z,56.80
2018-09-30T09:37:07.802Z,56.10
2018-09-30T09:39:36.535Z,56.20
2018-09-30T09:42:06.007Z,56.50
2018-09-30T09:44:34.774Z,55.50
2018-09-30T09:47:03.623Z,53.10
2018-09-30T09:49:34.259Z,54.10
2018-09-30T09:52:03.086Z,54.00
2018-09-30T09:54:32.000Z,53.10
2018-09-30T09:57:03.906Z,54.00
2018-09-30T09:59:32.650Z,54.40
2018-09-30T10:02:04.537Z,54.70
2018-09-30T10:04:33.346Z,54.40
2018-09-30T10:07:02.471Z,53.60
2018-09-30T10:09:31.245Z,53.20
2018-09-30T10:12:03.141Z,53.80
2018-09-30T10:14:32.054Z,52.20
2018-09-30T10:17:00.855Z,49.70
2018-09-30T10:19:30.874Z,48.00
2018-09-30T10:21:59.564Z,45.80
2018-09-30T10:24:28.441Z,43.60
2018-09-30T10:26:57.287Z,42.60
2018-09-30T10:29:29.129Z,43.30
2018-09-30T10:31:57.967Z,42.10
2018-09-30T10:34:26.859Z,40.80
2018-09-30T10:36:55.586Z,39.60
2018-09-30T10:39:24.410Z,39.20
2018-09-30T10:41:53.111Z,38.40
2018-09-30T10:44:22.004Z,37.70
2018-09-30T10:46:51.153Z,36.90
2018-09-30T10:49:19.853Z,36.40
2018-09-30T10:51:48.535Z,37.30
2018-09-30T10:54:17.295Z,37.00
2018-09-30T10:56:46.131Z,35.00
2018-09-30T10:59:14.794Z,36.10
2018-09-30T11:01:43.641Z,40.30
2018-09-30T11:04:12.327Z,38.30
2018-09-30T11:06:41.361Z,38.40
2018-09-30T11:09:10.390Z,39.40
2018-09-30T11:11:39.113Z,37.80
2018-09-30T11:14:07.850Z,36.70
2018-09-30T11:16:40.842Z,35.20
2018-09-30T11:19:09.596Z,34.10
2018-09-30T11:21:38.382Z,32.70
2018-09-30T11:24:07.355Z,30.10
2018-09-30T11:26:36.359Z,30.00
2018-09-30T11:29:05.213Z,30.00
2018-09-30T11:31:33.974Z,30.00
2018-09-30T11:34:02.662Z,29.50
2018-09-30T11:36:32.978Z,30.20
2018-09-30T11:39:01.615Z,30.00
2018-09-30T11:41:30.372Z,30.30
2018-09-30T11:44:00.290Z,32.40
2018-09-30T11:46:29.057Z,35.60
2018-09-30T11:49:00.043Z,34.40
2018-09-30T11:51:30.399Z,34.60
2018-09-30T11:53:59.059Z,33.30
2018-09-30T11:56:30.681Z,33.80
2018-09-30T11:58:59.325Z,33.30
2018-09-30T12:01:28.106Z,31.30
2018-09-30T12:03:58.574Z,30.70
2018-09-30T12:06:28.046Z,32.40
2018-09-30T12:08:57.123Z,31.30
2018-09-30T12:11:26.156Z,29.40
2018-09-30T12:13:54.925Z,28.50
2018-09-30T12:16:23.633Z,28.00
2018-09-30T12:18:52.527Z,28.30
2018-09-30T12:21:21.376Z,28.40
2018-09-30T12:23:50.133Z,28.10
2018-09-30T12:26:18.832Z,27.50
2018-09-30T12:30:16.892Z,27.40
2018-09-30T12:32:45.681Z,27.00
2018-09-30T12:35:14.359Z,27.60
2018-09-30T12:37:43.331Z,27.40
2018-09-30T12:40:12.131Z,27.60
2018-09-30T12:42:41.233Z,27.70
2018-09-30T12:45:09.998Z,27.30
2018-09-30T12:47:38.774Z,27.20
2018-09-30T12:50:09.948Z,27.30
2018-09-30T12:52:41.383Z,27.40
2018-09-30T12:55:10.135Z,29.00
2018-09-30T12:57:40.405Z,28.30
2018-09-30T13:00:09.963Z,28.80
2018-09-30T13:02:41.254Z,28.90
2018-09-30T13:05:10.156Z,27.40
2018-09-30T13:07:38.853Z,27.50
2018-09-30T13:10:07.786Z,26.80
2018-09-30T13:12:36.443Z,28.00
2018-09-30T13:15:05.235Z,29.30
2018-09-30T13:17:34.030Z,27.30
2018-09-30T13:20:02.738Z,26.90
2018-09-30T13:22:31.412Z,27.30
2018-09-30T13:25:00.187Z,29.00
2018-09-30T13:27:28.875Z,30.50
2018-09-30T13:29:57.695Z,30.60
2018-09-30T13:32:26.479Z,33.30
2018-09-30T13:34:56.183Z,33.50
2018-09-30T13:37:24.921Z,33.80
2018-09-30T13:39:53.690Z,34.30
2018-09-30T13:42:22.727Z,35.50
2018-09-30T13:44:51.479Z,36.90
2018-09-30T13:47:20.162Z,37.00
2018-09-30T13:49:48.836Z,37.40
2018-09-30T13:52:17.526Z,37.70
2018-09-30T13:54:46.291Z,36.90
2018-09-30T13:57:14.964Z,37.10
2018-09-30T13:59:43.597Z,35.40
2018-09-30T14:02:12.353Z,36.90
2018-09-30T14:04:41.041Z,36.30
2018-09-30T14:07:09.722Z,36.50
2018-09-30T14:09:39.039Z,36.80
2018-09-30T14:12:07.897Z,36.90
2018-09-30T14:14:38.370Z,36.60
2018-09-30T14:17:07.301Z,36.20
2018-09-30T14:19:40.439Z,35.40
2018-09-30T14:26:38.024Z,36.90
2018-09-30T14:29:21.268Z,37.10
2018-09-30T14:31:49.990Z,37.70
2018-09-30T14:34:19.010Z,37.30
2018-09-30T14:36:47.636Z,37.70
2018-09-30T14:39:16.501Z,37.90
2018-09-30T14:41:45.385Z,37.30
2018-09-30T14:44:14.124Z,37.60
2018-09-30T14:46:43.520Z,35.90
2018-09-30T14:49:12.326Z,37.20
2018-09-30T14:51:41.443Z,37.70
2018-09-30T14:54:10.211Z,37.80
2018-09-30T14:56:42.489Z,37.90
2018-09-30T14:59:11.204Z,37.80
2018-09-30T15:01:42.325Z,37.90
2018-09-30T15:04:11.873Z,38.80
2018-09-30T15:06:40.624Z,38.70
2018-09-30T15:09:11.125Z,39.30
2018-09-30T15:11:39.808Z,39.20
2018-09-30T15:14:08.715Z,39.20
2018-09-30T15:16:37.570Z,39.10
2018-09-30T15:19:06.244Z,39.80
2018-09-30T15:21:37.274Z,38.90
2018-09-30T15:24:05.965Z,40.00
2018-09-30T15:26:40.854Z,40.00
2018-09-30T15:29:10.051Z,39.60
2018-09-30T15:31:40.602Z,39.00
2018-09-30T15:34:09.598Z,38.70
2018-09-30T15:36:39.234Z,38.30
2018-09-30T15:39:09.698Z,38.60
2018-09-30T15:41:38.734Z,38.30
2018-09-30T15:44:07.799Z,38.20
2018-09-30T15:46:36.771Z,38.40
2018-09-30T15:49:05.503Z,38.90
2018-09-30T15:51:34.937Z,38.90
2018-09-30T15:54:03.886Z,38.80
2018-09-30T15:56:32.787Z,38.80
2018-09-30T15:59:01.687Z,38.80
2018-09-30T16:01:30.437Z,38.60
2018-09-30T16:03:59.122Z,38.40
2018-09-30T16:06:27.940Z,38.40
2018-09-30T16:08:56.816Z,38.90
2018-09-30T16:11:25.800Z,38.90
2018-09-30T16:13:55.672Z,39.60
2018-09-30T16:16:24.621Z,39.60
2018-09-30T16:18:53.679Z,40.00
2018-09-30T16:21:22.342Z,40.20
2018-09-30T16:23:52.987Z,40.40
2018-09-30T16:26:21.834Z,39.40
2018-09-30T16:28:50.812Z,41.10
2018-09-30T16:31:19.634Z,41.20
2018-09-30T16:33:48.552Z,41.40
2018-09-30T16:36:17.342Z,41.80
2018-09-30T16:38:46.166Z,42.10
2018-09-30T16:41:15.175Z,41.70
2018-09-30T16:43:43.990Z,43.00
2018-09-30T16:46:12.660Z,45.80
2018-09-30T16:48:41.389Z,46.40
2018-09-30T16:51:10.406Z,48.40
2018-09-30T16:53:39.452Z,48.30
2018-09-30T16:56:08.387Z,48.30
2018-09-30T16:58:37.268Z,48.60
2018-09-30T17:01:06.196Z,49.30
2018-09-30T17:03:35.327Z,50.60
2018-09-30T17:06:04.202Z,51.10
2018-09-30T17:08:33.454Z,51.00
2018-09-30T17:11:04.397Z,51.00
2018-09-30T17:13:33.552Z,51.80
2018-09-30T17:16:03.963Z,51.00
2018-09-30T17:18:32.892Z,52.20
2018-09-30T17:21:04.791Z,52.60
2018-09-30T17:23:33.718Z,53.30
2018-09-30T17:26:06.381Z,53.80
2018-09-30T17:28:35.196Z,54.20
2018-09-30T17:31:03.922Z,54.70
2018-09-30T17:33:33.009Z,54.90
2018-09-30T17:36:03.146Z,55.50
2018-09-30T17:38:33.929Z,56.10
2018-09-30T17:41:03.468Z,56.10
2018-09-30T17:43:32.910Z,56.20
2018-09-30T17:46:01.708Z,56.50
2018-09-30T17:48:31.519Z,56.40
2018-09-30T17:51:00.475Z,56.30
2018-09-30T17:53:31.850Z,56.30
2018-09-30T17:56:00.691Z,56.40
2018-09-30T17:58:30.723Z,56.60
2018-09-30T18:00:59.514Z,56.80
2018-09-30T18:03:28.823Z,55.60
2018-09-30T18:05:57.707Z,57.90
2018-09-30T18:08:27.562Z,60.10
2018-09-30T18:10:57.291Z,62.90
2018-09-30T18:13:26.076Z,64.80
2018-09-30T18:15:54.819Z,63.70
2018-09-30T18:18:23.675Z,65.40
2018-09-30T18:20:52.478Z,66.00
2018-09-30T18:23:21.509Z,66.40
2018-09-30T18:25:50.385Z,67.00
2018-09-30T18:28:19.266Z,66.80
2018-09-30T18:30:48.177Z,67.50
2018-09-30T18:33:17.504Z,68.20
2018-09-30T18:35:46.281Z,66.30
2018-09-30T18:38:14.964Z,68.00
2018-09-30T18:40:45.496Z,68.30
2018-09-30T18:43:19.358Z,68.60
2018-09-30T18:45:49.859Z,68.10
2018-09-30T18:48:18.566Z,68.70
2018-09-30T18:50:51.553Z,69.40
2018-09-30T18:53:20.268Z,70.10
2018-09-30T18:55:49.379Z,70.60
2018-09-30T18:58:18.099Z,71.10
2018-09-30T19:00:49.955Z,71.20
2018-09-30T19:03:19.326Z,71.50
2018-09-30T19:05:48.215Z,72.00
2018-09-30T19:08:17.013Z,72.00
2018-09-30T19:10:45.633Z,72.20
2018-09-30T19:13:14.389Z,71.10
2018-09-30T19:15:43.359Z,72.80
2018-09-30T19:18:12.124Z,72.70
2018-09-30T19:20:40.877Z,73.50
2018-09-30T19:23:10.155Z,73.50
2018-09-30T19:25:38.897Z,73.70
2018-09-30T19:28:07.681Z,73.70
2018-09-30T19:30:36.433Z,74.80
2018-09-30T19:33:05.489Z,74.80
2018-09-30T19:35:35.772Z,75.20
2018-09-30T19:38:04.474Z,75.50
2018-09-30T19:40:33.163Z,75.60
2018-09-30T19:43:02.022Z,74.60
2018-09-30T19:45:31.556Z,75.40
2018-09-30T19:48:00.306Z,75.20
2018-09-30T19:50:29.365Z,75.50
2018-09-30T19:52:58.213Z,75.40
2018-09-30T19:55:27.200Z,75.30
2018-09-30T19:57:56.826Z,75.30
2018-09-30T20:00:25.762Z,74.10
2018-09-30T20:02:54.639Z,75.00
2018-09-30T20:05:23.401Z,74.60
2018-09-30T20:07:52.351Z,74.10
2018-09-30T20:10:21.062Z,74.10
2018-09-30T20:12:50.367Z,74.30
2018-09-30T20:15:19.599Z,73.20
2018-09-30T20:17:48.406Z,74.30
2018-09-30T20:20:17.320Z,74.20
2018-09-30T20:22:46.028Z,74.00
2018-09-30T20:25:15.158Z,74.10
2018-09-30T20:27:43.982Z,74.50
2018-09-30T20:30:12.702Z,74.50
2018-09-30T20:32:41.775Z,74.70
2018-09-30T20:35:10.462Z,75.60
2018-09-30T20:37:39.171Z,75.90
2018-09-30T20:40:07.985Z,77.00
2018-09-30T20:42:37.200Z,77.20
2018-09-30T20:45:06.118Z,77.40
2018-09-30T20:47:35.111Z,77.70
2018-09-30T20:50:03.967Z,77.60
2018-09-30T20:52:32.750Z,77.70
2018-09-30T20:55:01.371Z,77.60
2018-09-30T20:57:30.166Z,77.40
2018-09-30T20:59:58.931Z,77.50
2018-09-30T21:02:27.540Z,77.60
2018-09-30T21:04:56.480Z,77.70
2018-09-30T21:07:25.999Z,78.30
2018-09-30T21:09:55.056Z,78.40
2018-09-30T21:12:23.839Z,78.60
2018-09-30T21:14:52.554Z,78.80
2018-09-30T21:17:21.345Z,79.30
2018-09-30T21:19:50.062Z,79.90
2018-09-30T21:22:18.784Z,80.60
2018-09-30T21:24:47.630Z,80.90
2018-09-30T21:27:16.532Z,81.20
2018-09-30T21:29:45.274Z,80.20
2018-09-30T21:32:13.966Z,81.70
2018-09-30T21:34:42.625Z,82.10
2018-09-30T21:37:11.353Z,82.20
2018-09-30T21:39:40.033Z,82.20
2018-09-30T21:42:10.414Z,82.60
2018-09-30T21:44:39.166Z,82.30
2018-09-30T21:47:07.880Z,82.20
2018-09-30T21:49:36.591Z,82.50
2018-09-30T21:52:05.258Z,82.50
2018-09-30T21:54:33.933Z,82.70
2018-09-30T21:57:02.623Z,82.50
2018-09-30T21:59:31.362Z,82.50
2018-09-30T22:02:00.216Z,81.70
2018-09-30T22:04:28.898Z,82.10
2018-09-30T22:06:57.590Z,82.40
2018-09-30T22:09:27.149Z,83.60
2018-09-30T22:11:55.889Z,83.10
2018-09-30T22:14:25.659Z,83.20
2018-09-30T22:16:54.341Z,83.30
2018-09-30T22:19:24.463Z,83.70
2018-09-30T22:21:53.205Z,83.70
2018-09-30T22:24:21.853Z,83.00
2018-09-30T22:26:50.597Z,82.40
2018-09-30T22:29:19.209Z,82.30
2018-09-30T22:31:47.972Z,82.70
2018-09-30T22:34:16.672Z,82.20
2018-09-30T22:36:45.427Z,83.10
2018-09-30T22:39:14.170Z,82.80
2018-09-30T22:41:42.792Z,83.50
2018-09-30T22:44:11.392Z,83.80
2018-09-30T22:46:40.183Z,84.50
2018-09-30T22:49:09.076Z,84.00
2018-09-30T22:51:37.719Z,83.60
2018-09-30T22:54:06.772Z,83.00
2018-09-30T22:56:35.446Z,82.80
2018-09-30T22:59:04.126Z,83.40
2018-09-30T23:01:32.972Z,84.40
2018-09-30T23:04:01.733Z,84.80
2018-09-30T23:06:30.489Z,85.10
2018-09-30T23:08:59.359Z,85.20
2018-09-30T23:11:28.041Z,85.80
2018-09-30T23:13:57.653Z,86.10
2018-09-30T23:16:26.293Z,85.80
2018-09-30T23:18:54.984Z,86.20
2018-09-30T23:21:24.047Z,85.50
2018-09-30T23:23:52.935Z,86.70
2018-09-30T23:26:21.773Z,86.80
2018-09-30T23:28:50.329Z,87.20
2018-09-30T23:31:19.142Z,87.30
2018-09-30T23:33:47.871Z,87.60
2018-09-30T23:37:46.777Z,87.90
2018-09-30T23:40:15.473Z,87.70
2018-09-30T23:42:44.196Z,88.00
2018-09-30T23:45:12.852Z,88.20
2018-09-30T23:47:41.537Z,88.20
2018-09-30T23:50:10.310Z,88.00
2018-09-30T23:52:38.982Z,87.80
2018-09-30T23:55:09.020Z,87.90
2018-09-30T23:57:37.732Z,88.00
